createdAt,value
2018-01-13T00:02:21.693Z,12.60
2018-01-13T00:04:47.720Z,13.77
2018-01-13T00:07:13.784Z,15.10
2018-01-13T00:09:39.772Z,13.30
2018-01-13T00:12:05.804Z,15.30
2018-01-13T00:14:31.816Z,17.37
2018-01-13T00:16:57.836Z,17.37
2018-01-13T00:19:23.863Z,15.50
2018-01-13T00:21:49.844Z,15.80
2018-01-13T00:24:15.869Z,14.70
2018-01-13T00:26:41.997Z,14.50
2018-01-13T00:29:07.988Z,14.70
2018-01-13T00:31:34.020Z,13.60
2018-01-13T00:34:00.500Z,13.83
2018-01-13T00:36:26.592Z,13.10
2018-01-13T00:38:52.584Z,13.63
2018-01-13T00:41:18.584Z,14.03
2018-01-13T00:43:44.640Z,13.30
2018-01-13T00:46:10.641Z,12.17
2018-01-13T00:48:36.672Z,14.13
2018-01-13T00:51:02.712Z,14.27
2018-01-13T00:53:28.743Z,13.43
2018-01-13T00:55:54.780Z,13.70
2018-01-13T00:58:20.812Z,13.63
2018-01-13T01:00:46.809Z,13.70
2018-01-13T01:03:12.808Z,13.10
2018-01-13T01:05:38.893Z,14.37
2018-01-13T01:08:04.904Z,13.13
2018-01-13T01:10:30.876Z,15.97
2018-01-13T01:12:56.933Z,13.37
2018-01-13T01:15:22.924Z,13.83
2018-01-13T01:17:48.924Z,14.03
2018-01-13T01:20:14.969Z,13.47
2018-01-13T01:22:40.937Z,13.10
2018-01-13T01:25:06.934Z,13.57
2018-01-13T01:27:32.931Z,15.43
2018-01-13T01:29:58.948Z,16.70
2018-01-13T01:32:24.941Z,14.27
2018-01-13T01:34:50.972Z,14.73
2018-01-13T01:37:17.013Z,14.70
2018-01-13T01:39:42.999Z,15.30
2018-01-13T01:42:09.089Z,14.87
2018-01-13T01:44:35.116Z,14.63
2018-01-13T01:47:01.103Z,20.37
2018-01-13T01:49:27.176Z,17.60
2018-01-13T01:51:53.205Z,19.03
2018-01-13T01:54:19.248Z,25.90
2018-01-13T01:56:45.308Z,21.00
2018-01-13T01:59:11.328Z,26.90
2018-01-13T02:01:37.324Z,23.63
2018-01-13T02:04:03.380Z,21.47
2018-01-13T02:06:29.681Z,21.20
2018-01-13T02:08:55.680Z,19.20
2018-01-13T02:11:21.699Z,20.13
2018-01-13T02:13:47.748Z,17.97
2018-01-13T02:16:13.808Z,18.10
2018-01-13T02:18:39.845Z,20.17
2018-01-13T02:21:05.853Z,20.83
2018-01-13T02:23:31.847Z,18.27
2018-01-13T02:25:57.901Z,19.40
2018-01-13T02:28:23.953Z,19.87
2018-01-13T02:30:49.996Z,18.33
2018-01-13T02:33:16.004Z,19.40
2018-01-13T02:35:42.048Z,16.90
2018-01-13T02:38:08.112Z,18.13
2018-01-13T02:40:34.133Z,18.40
2018-01-13T02:43:00.185Z,18.37
2018-01-13T02:45:26.189Z,20.03
2018-01-13T02:47:52.193Z,20.50
2018-01-13T02:50:18.188Z,19.90
2018-01-13T02:52:44.194Z,17.37
2018-01-13T02:55:10.237Z,18.03
2018-01-13T02:57:36.264Z,17.47
2018-01-13T03:00:03.219Z,17.10
2018-01-13T03:02:29.243Z,17.63
2018-01-13T03:04:55.273Z,16.03
2018-01-13T03:07:21.396Z,17.37
2018-01-13T03:09:47.805Z,16.20
2018-01-13T03:12:13.869Z,18.67
2018-01-13T03:14:39.912Z,17.60
2018-01-13T03:17:05.933Z,17.30
2018-01-13T03:19:31.915Z,17.23
2018-01-13T03:21:57.945Z,16.73
2018-01-13T03:24:24.027Z,16.07
2018-01-13T03:26:50.176Z,15.93
2018-01-13T03:29:16.236Z,15.60
2018-01-13T03:31:42.264Z,12.93
2018-01-13T03:34:08.318Z,12.80
2018-01-13T03:36:34.339Z,12.73
2018-01-13T03:39:00.337Z,13.40
2018-01-13T03:41:26.633Z,13.20
2018-01-13T03:43:52.675Z,13.70
2018-01-13T03:46:18.693Z,13.03
2018-01-13T03:48:44.727Z,12.53
2018-01-13T03:51:10.732Z,13.93
2018-01-13T03:53:36.787Z,13.43
2018-01-13T03:56:02.896Z,12.93
2018-01-13T03:58:28.907Z,12.57
2018-01-13T04:00:54.956Z,12.60
2018-01-13T04:03:21.016Z,13.10
2018-01-13T04:05:47.028Z,12.83
2018-01-13T04:08:13.056Z,12.93
2018-01-13T04:10:39.073Z,13.57
2018-01-13T04:13:05.148Z,13.10
2018-01-13T04:15:31.148Z,18.00
2018-01-13T04:17:57.152Z,17.80
2018-01-13T04:20:23.176Z,17.20
2018-01-13T04:22:49.280Z,17.13
2018-01-13T04:25:15.301Z,17.13
2018-01-13T04:27:41.543Z,17.43
2018-01-13T04:30:07.556Z,17.20
2018-01-13T04:32:33.604Z,15.13
2018-01-13T04:34:59.620Z,18.10
2018-01-13T04:37:25.576Z,19.33
2018-01-13T04:39:51.727Z,18.27
2018-01-13T04:42:17.732Z,19.50
2018-01-13T04:44:43.739Z,19.70
2018-01-13T04:47:10.176Z,17.70
2018-01-13T04:49:36.211Z,16.97
2018-01-13T04:52:02.246Z,19.50
2018-01-13T04:54:28.548Z,21.83
2018-01-13T04:56:54.632Z,18.70
2018-01-13T04:59:20.744Z,19.33
2018-01-13T05:01:46.771Z,20.87
2018-01-13T05:04:12.768Z,21.50
2018-01-13T05:06:38.784Z,23.80
2018-01-13T05:09:04.908Z,23.73
2018-01-13T05:11:30.944Z,24.30
2018-01-13T05:13:56.924Z,23.77
2018-01-13T05:16:22.964Z,25.03
2018-01-13T05:18:49.055Z,25.27
2018-01-13T05:21:15.079Z,26.30
2018-01-13T05:23:41.124Z,25.60
2018-01-13T05:26:07.147Z,24.83
2018-01-13T05:28:33.157Z,25.83
2018-01-13T05:30:59.137Z,25.70
2018-01-13T05:33:25.125Z,23.23
2018-01-13T05:35:51.072Z,23.97
2018-01-13T05:38:17.105Z,22.17
2018-01-13T05:40:43.160Z,25.70
2018-01-13T05:43:09.572Z,24.17
2018-01-13T05:45:35.649Z,24.20
2018-01-13T05:48:01.742Z,21.47
2018-01-13T05:50:27.854Z,20.97
2018-01-13T05:52:53.887Z,21.83
2018-01-13T05:55:19.931Z,21.10
2018-01-13T05:57:45.913Z,24.00
2018-01-13T06:00:11.963Z,19.87
2018-01-13T06:02:37.997Z,22.37
2018-01-13T06:05:04.116Z,20.77
2018-01-13T06:07:30.151Z,22.50
2018-01-13T06:09:56.171Z,22.80
2018-01-13T06:12:22.176Z,21.40
2018-01-13T06:14:48.312Z,22.00
2018-01-13T06:17:14.286Z,22.60
2018-01-13T06:19:40.296Z,21.40
2018-01-13T06:22:06.330Z,23.00
2018-01-13T06:24:32.359Z,23.40
2018-01-13T06:26:58.386Z,21.63
2018-01-13T06:29:24.396Z,22.17
2018-01-13T06:31:50.381Z,20.67
2018-01-13T06:34:16.436Z,21.43
2018-01-13T06:36:42.444Z,24.50
2018-01-13T06:39:08.869Z,22.60
2018-01-13T06:41:34.889Z,23.47
2018-01-13T06:44:00.927Z,22.67
2018-01-13T06:46:26.975Z,22.90
2018-01-13T06:48:52.992Z,23.13
2018-01-13T06:51:19.007Z,23.47
2018-01-13T06:53:45.084Z,23.60
2018-01-13T06:56:11.135Z,22.23
2018-01-13T06:58:37.168Z,24.10
2018-01-13T07:01:03.151Z,23.50
2018-01-13T07:03:29.188Z,22.80
2018-01-13T07:05:55.215Z,23.87
2018-01-13T07:08:21.232Z,24.83
2018-01-13T07:10:47.232Z,24.70
2018-01-13T07:13:13.290Z,23.37
2018-01-13T07:15:39.289Z,25.10
2018-01-13T07:18:05.316Z,23.00
2018-01-13T07:20:31.372Z,24.77
2018-01-13T07:22:57.480Z,25.07
2018-01-13T07:25:23.528Z,26.07
2018-01-13T07:27:49.544Z,26.33
2018-01-13T07:30:15.549Z,25.90
2018-01-13T07:32:41.577Z,24.70
2018-01-13T07:35:07.604Z,28.57
2018-01-13T07:37:33.680Z,29.07
2018-01-13T07:39:59.693Z,26.47
2018-01-13T07:42:25.652Z,27.47
2018-01-13T07:44:51.636Z,26.30
2018-01-13T07:47:17.702Z,26.20
2018-01-13T07:49:43.692Z,23.93
2018-01-13T07:52:09.715Z,25.00
2018-01-13T07:54:35.778Z,26.30
2018-01-13T07:57:01.816Z,26.63
2018-01-13T07:59:27.841Z,21.83
2018-01-13T08:01:53.860Z,25.53
2018-01-13T08:04:19.889Z,26.33
2018-01-13T08:06:46.297Z,22.63
2018-01-13T08:09:12.319Z,25.67
2018-01-13T08:11:38.389Z,23.83
2018-01-13T08:14:04.443Z,25.10
2018-01-13T08:16:30.527Z,22.33
2018-01-13T08:18:56.540Z,22.60
2018-01-13T08:21:22.604Z,23.10
2018-01-13T08:23:48.663Z,19.90
2018-01-13T08:26:14.649Z,19.17
2018-01-13T08:28:40.686Z,19.60
2018-01-13T08:31:06.736Z,19.23
2018-01-13T08:33:32.802Z,20.90
2018-01-13T08:35:58.857Z,19.17
2018-01-13T08:38:24.876Z,15.63
2018-01-13T08:40:51.036Z,18.27
2018-01-13T08:43:17.036Z,16.00
2018-01-13T08:45:43.076Z,16.10
2018-01-13T08:48:09.161Z,15.73
2018-01-13T08:50:35.147Z,15.97
2018-01-13T08:53:01.971Z,13.80
2018-01-13T08:55:28.045Z,13.80
2018-01-13T08:57:54.128Z,13.63
2018-01-13T09:00:20.239Z,13.13
2018-01-13T09:02:46.312Z,11.70
2018-01-13T09:05:12.380Z,13.53
2018-01-13T09:07:38.423Z,13.70
2018-01-13T09:10:04.483Z,12.80
2018-01-13T09:12:30.566Z,11.73
2018-01-13T09:14:56.556Z,12.10
2018-01-13T09:17:22.577Z,13.27
2018-01-13T09:19:48.608Z,12.07
2018-01-13T09:22:14.637Z,13.10
2018-01-13T09:24:40.680Z,14.00
2018-01-13T09:27:06.749Z,13.00
2018-01-13T09:29:32.692Z,14.53
2018-01-13T09:31:58.676Z,12.23
2018-01-13T09:34:24.697Z,14.30
2018-01-13T09:36:50.755Z,12.33
2018-01-13T09:39:16.788Z,13.40
2018-01-13T09:41:42.837Z,14.07
2018-01-13T09:44:09.245Z,14.63
2018-01-13T09:46:35.275Z,13.67
2018-01-13T09:49:01.365Z,13.07
2018-01-13T09:51:27.400Z,15.33
2018-01-13T09:53:53.369Z,14.57
2018-01-13T09:56:19.436Z,13.40
2018-01-13T09:58:45.440Z,14.10
2018-01-13T10:01:11.439Z,16.23
2018-01-13T10:03:37.471Z,14.73
2018-01-13T10:06:03.541Z,17.43
2018-01-13T10:08:29.493Z,16.20
2018-01-13T10:10:55.496Z,15.40
2018-01-13T10:13:21.526Z,14.70
2018-01-13T10:15:47.536Z,15.63
2018-01-13T10:18:13.572Z,13.93
2018-01-13T10:20:39.613Z,13.30
2018-01-13T10:23:05.608Z,14.67
2018-01-13T10:25:31.616Z,14.27
2018-01-13T10:27:57.588Z,14.43
2018-01-13T10:30:23.668Z,13.13
2018-01-13T10:32:49.743Z,16.00
2018-01-13T10:35:15.763Z,13.57
2018-01-13T10:37:41.756Z,14.30
2018-01-13T10:40:07.848Z,11.27
2018-01-13T10:42:33.857Z,11.93
2018-01-13T10:44:59.877Z,13.17
2018-01-13T10:47:25.974Z,13.23
2018-01-13T10:49:52.068Z,11.23
2018-01-13T10:52:18.069Z,12.03
2018-01-13T10:54:44.111Z,13.73
2018-01-13T10:57:10.180Z,13.60
2018-01-13T10:59:36.216Z,12.17
2018-01-13T11:02:02.265Z,12.40
2018-01-13T11:04:28.282Z,13.73
2018-01-13T11:06:54.357Z,10.93
2018-01-13T11:09:20.398Z,9.90
2018-01-13T11:11:46.389Z,13.03
2018-01-13T11:14:12.404Z,12.53
2018-01-13T11:16:38.428Z,12.90
2018-01-13T11:19:04.492Z,11.40
2018-01-13T11:21:30.502Z,12.07
2018-01-13T11:23:56.530Z,10.77
2018-01-13T11:26:22.584Z,12.17
2018-01-13T11:28:48.596Z,11.77
2018-01-13T11:31:14.671Z,11.53
2018-01-13T11:33:40.697Z,11.37
2018-01-13T11:36:06.776Z,11.13
2018-01-13T11:38:32.751Z,11.60
2018-01-13T11:40:58.748Z,13.40
2018-01-13T11:43:24.808Z,11.40
2018-01-13T11:45:50.816Z,10.67
2018-01-13T11:48:16.845Z,11.30
2018-01-13T11:50:42.901Z,11.47
2018-01-13T11:53:08.925Z,12.13
2018-01-13T11:55:35.093Z,10.60
2018-01-13T11:58:01.238Z,12.13
2018-01-13T12:00:27.402Z,11.43
2018-01-13T12:02:53.484Z,14.50
2018-01-13T12:05:19.545Z,12.13
2018-01-13T12:07:45.538Z,11.57
2018-01-13T12:10:16.128Z,11.10
2018-01-13T12:12:42.173Z,13.80
2018-01-13T12:15:08.231Z,13.27
2018-01-13T12:17:34.356Z,12.50
2018-01-13T12:20:00.321Z,12.60
2018-01-13T12:22:26.891Z,12.23
2018-01-13T12:24:52.937Z,11.53
2018-01-13T12:27:19.003Z,13.10
2018-01-13T12:29:45.149Z,13.80
2018-01-13T12:32:11.280Z,12.40
2018-01-13T12:34:37.465Z,12.47
2018-01-13T12:37:03.531Z,12.50
2018-01-13T12:39:29.588Z,12.33
2018-01-13T12:41:55.628Z,14.00
2018-01-13T12:44:21.661Z,15.70
2018-01-13T12:46:47.720Z,15.17
2018-01-13T12:49:13.765Z,15.33
2018-01-13T12:51:39.825Z,16.73
2018-01-13T12:54:05.878Z,13.63
2018-01-13T12:56:32.065Z,13.67
2018-01-13T12:58:58.177Z,14.10
2018-01-13T13:01:24.211Z,14.10
2018-01-13T13:03:50.260Z,13.10
2018-01-13T13:06:16.305Z,13.00
2018-01-13T13:08:42.993Z,14.50
2018-01-13T13:11:09.008Z,15.13
2018-01-13T13:13:35.052Z,14.13
2018-01-13T13:16:01.428Z,13.60
2018-01-13T13:18:27.875Z,12.63
2018-01-13T13:20:53.892Z,13.50
2018-01-13T13:23:19.957Z,13.60
2018-01-13T13:25:45.956Z,14.00
2018-01-13T13:28:12.076Z,13.20
2018-01-13T13:30:38.097Z,13.50
2018-01-13T13:33:04.099Z,13.00
2018-01-13T13:35:30.147Z,14.87
2018-01-13T13:37:56.126Z,15.37
2018-01-13T13:40:22.168Z,13.10
2018-01-13T13:42:48.224Z,12.40
2018-01-13T13:45:14.300Z,14.67
2018-01-13T13:47:40.297Z,15.50
2018-01-13T13:50:06.359Z,14.47
2018-01-13T13:52:32.365Z,14.37
2018-01-13T13:54:58.394Z,15.10
2018-01-13T13:57:24.538Z,12.67
2018-01-13T13:59:50.632Z,14.60
2018-01-13T14:02:16.624Z,15.27
2018-01-13T14:04:42.709Z,16.93
2018-01-13T14:07:08.767Z,15.63
2018-01-13T14:09:34.877Z,15.53
2018-01-13T14:12:00.974Z,13.23
2018-01-13T14:14:27.046Z,13.87
2018-01-13T14:16:53.190Z,12.60
2018-01-13T14:19:19.505Z,13.20
2018-01-13T14:21:45.476Z,15.20
2018-01-13T14:24:11.542Z,13.43
2018-01-13T14:26:37.593Z,12.87
2018-01-13T14:29:03.624Z,12.43
2018-01-13T14:31:30.065Z,14.50
2018-01-13T14:33:56.138Z,12.47
2018-01-13T14:36:22.224Z,14.03
2018-01-13T14:38:48.294Z,13.03
2018-01-13T14:41:14.433Z,14.27
2018-01-13T14:43:40.489Z,18.10
2018-01-13T14:46:06.552Z,13.23
2018-01-13T14:48:32.581Z,14.20
2018-01-13T14:50:58.696Z,14.47
2018-01-13T14:53:24.704Z,16.97
2018-01-13T14:55:50.752Z,20.67
2018-01-13T14:58:16.761Z,11.80
2018-01-13T15:00:43.360Z,11.53
2018-01-13T15:03:09.343Z,12.67
2018-01-13T15:05:35.364Z,13.53
2018-01-13T15:08:01.428Z,12.60
2018-01-13T15:10:27.432Z,11.93
2018-01-13T15:12:53.474Z,11.40
2018-01-13T15:15:27.264Z,11.80
2018-01-13T15:17:53.336Z,12.17
2018-01-13T15:20:19.316Z,13.53
2018-01-13T15:22:45.374Z,11.30
2018-01-13T15:25:11.388Z,14.07
2018-01-13T15:27:37.548Z,14.87
2018-01-13T15:30:03.748Z,12.13
2018-01-13T15:32:29.753Z,11.20
2018-01-13T15:34:55.844Z,12.20
2018-01-13T15:37:21.860Z,12.30
2018-01-13T15:39:47.888Z,11.03
2018-01-13T15:42:14.059Z,12.00
2018-01-13T15:44:40.126Z,13.43
2018-01-13T15:47:06.180Z,11.53
2018-01-13T15:49:32.220Z,10.93
2018-01-13T15:52:04.364Z,12.60
2018-01-13T15:54:30.642Z,10.70
2018-01-13T15:56:56.804Z,13.20
2018-01-13T15:59:23.530Z,14.17
2018-01-13T16:01:49.568Z,13.20
2018-01-13T16:04:15.624Z,14.80
2018-01-13T16:06:41.702Z,13.87
2018-01-13T16:09:07.772Z,15.23
2018-01-13T16:11:33.862Z,13.30
2018-01-13T16:13:59.884Z,13.30
2018-01-13T16:16:25.972Z,12.40
2018-01-13T16:18:52.058Z,13.23
2018-01-13T16:21:18.094Z,13.90
2018-01-13T16:23:44.144Z,13.00
2018-01-13T16:26:10.249Z,13.03
2018-01-13T16:28:36.341Z,13.20
2018-01-13T16:31:16.364Z,13.90
2018-01-13T16:33:42.410Z,14.20
2018-01-13T16:36:08.433Z,13.37
2018-01-13T16:38:34.579Z,15.10
2018-01-13T16:41:00.626Z,12.70
2018-01-13T16:43:26.684Z,11.57
2018-01-13T16:45:52.770Z,15.60
2018-01-13T16:48:18.776Z,13.40
2018-01-13T16:50:44.874Z,13.57
2018-01-13T16:53:10.885Z,13.33
2018-01-13T16:55:36.910Z,14.60
2018-01-13T16:58:02.957Z,13.30
2018-01-13T17:00:29.002Z,16.13
2018-01-13T17:02:55.014Z,15.03
2018-01-13T17:05:21.014Z,14.60
2018-01-13T17:07:47.106Z,16.33
2018-01-13T17:10:13.167Z,15.40
2018-01-13T17:12:39.229Z,15.67
2018-01-13T17:15:05.304Z,15.50
2018-01-13T17:17:31.309Z,15.17
2018-01-13T17:19:57.389Z,14.10
2018-01-13T17:22:23.557Z,15.27
2018-01-13T17:24:49.656Z,12.50
2018-01-13T17:27:15.670Z,12.73
2018-01-13T17:29:41.705Z,12.67
2018-01-13T17:32:07.737Z,12.00
2018-01-13T17:34:33.804Z,14.30
2018-01-13T17:36:59.897Z,13.60
2018-01-13T17:39:25.952Z,15.70
2018-01-13T17:41:52.016Z,15.43
2018-01-13T17:44:18.172Z,15.20
2018-01-13T17:46:44.190Z,15.47
2018-01-13T17:49:10.221Z,14.20
2018-01-13T17:51:36.262Z,16.00
2018-01-13T17:54:02.326Z,14.97
2018-01-13T17:56:28.440Z,29.27
2018-01-13T17:58:54.973Z,21.50
2018-01-13T18:01:21.052Z,17.27
2018-01-13T18:03:47.064Z,18.17
2018-01-13T18:06:13.088Z,19.50
2018-01-13T18:08:39.157Z,21.97
2018-01-13T18:11:05.181Z,30.50
2018-01-13T18:13:31.259Z,18.80
2018-01-13T18:15:57.245Z,16.87
2018-01-13T18:18:23.257Z,19.80
2018-01-13T18:20:49.249Z,16.23
2018-01-13T18:23:15.327Z,19.07
2018-01-13T18:25:41.344Z,20.90
2018-01-13T18:28:08.349Z,18.43
2018-01-13T18:30:34.404Z,22.57
2018-01-13T18:33:00.442Z,22.97
2018-01-13T18:35:26.491Z,17.23
2018-01-13T18:37:52.546Z,21.53
2018-01-13T18:40:18.577Z,21.60
2018-01-13T18:42:44.612Z,21.73
2018-01-13T18:45:10.739Z,23.00
2018-01-13T18:47:36.764Z,21.93
2018-01-13T18:50:03.080Z,24.60
2018-01-13T18:52:29.178Z,23.87
2018-01-13T18:54:55.265Z,23.00
2018-01-13T18:57:21.328Z,23.70
2018-01-13T18:59:47.361Z,24.73
2018-01-13T19:02:13.396Z,22.93
2018-01-13T19:04:39.432Z,22.47
2018-01-13T19:07:05.468Z,23.30
2018-01-13T19:09:31.468Z,22.70
2018-01-13T19:11:57.516Z,24.07
2018-01-13T19:14:23.587Z,26.00
2018-01-13T19:16:49.627Z,23.30
2018-01-13T19:19:15.609Z,18.20
2018-01-13T19:21:41.672Z,24.50
2018-01-13T19:24:07.649Z,23.63
2018-01-13T19:26:33.636Z,25.73
2018-01-13T19:28:59.568Z,26.83
2018-01-13T19:31:25.656Z,24.87
2018-01-13T19:33:51.705Z,26.10
2018-01-13T19:36:17.797Z,25.70
2018-01-13T19:38:43.768Z,22.20
2018-01-13T19:41:09.749Z,24.97
2018-01-13T19:43:35.868Z,26.33
2018-01-13T19:46:01.853Z,22.90
2018-01-13T19:48:27.892Z,21.40
2018-01-13T19:50:53.909Z,23.47
2018-01-13T19:53:19.940Z,22.70
2018-01-13T19:55:45.988Z,21.03
2018-01-13T19:58:12.049Z,23.30
2018-01-13T20:00:38.124Z,20.33
2018-01-13T20:03:04.153Z,20.90
2018-01-13T20:05:30.166Z,18.70
2018-01-13T20:07:56.180Z,18.30
2018-01-13T20:10:22.222Z,18.63
2018-01-13T20:12:48.233Z,18.07
2018-01-13T20:15:14.321Z,16.50
2018-01-13T20:17:40.306Z,16.50
2018-01-13T20:20:06.284Z,17.57
2018-01-13T20:22:32.286Z,14.37
2018-01-13T20:24:58.290Z,18.30
2018-01-13T20:27:24.268Z,15.90
2018-01-13T20:29:50.297Z,18.30
2018-01-13T20:32:16.374Z,15.90
2018-01-13T20:34:42.365Z,14.13
2018-01-13T20:37:08.433Z,15.63
2018-01-13T20:39:34.420Z,15.07
2018-01-13T20:42:00.457Z,18.07
2018-01-13T20:44:26.511Z,17.60
2018-01-13T20:46:52.501Z,15.53
2018-01-13T20:49:18.414Z,15.00
2018-01-13T20:51:44.496Z,15.13
2018-01-13T20:54:10.512Z,18.00
2018-01-13T20:56:36.469Z,18.17
2018-01-13T20:59:02.517Z,17.97
2018-01-13T21:01:28.564Z,13.77
2018-01-13T21:03:54.619Z,17.07
2018-01-13T21:06:20.646Z,13.40
2018-01-13T21:08:46.682Z,15.17
2018-01-13T21:11:12.812Z,16.43
2018-01-13T21:13:38.790Z,15.53
2018-01-13T21:16:04.804Z,15.53
2018-01-13T21:18:30.852Z,16.13
2018-01-13T21:20:56.885Z,15.50
2018-01-13T21:23:22.901Z,14.60
2018-01-13T21:25:48.880Z,15.77
2018-01-13T21:28:14.959Z,15.07
2018-01-13T21:30:40.950Z,16.03
2018-01-13T21:33:06.976Z,13.77
2018-01-13T21:35:32.988Z,15.77
2018-01-13T21:37:59.012Z,16.10
2018-01-13T21:40:25.061Z,15.20
2018-01-13T21:42:51.086Z,16.20
2018-01-13T21:45:17.076Z,14.00
2018-01-13T21:47:43.077Z,15.40
2018-01-13T21:50:09.176Z,13.37
2018-01-13T21:52:35.214Z,15.63
2018-01-13T21:55:01.180Z,15.10
2018-01-13T21:57:27.200Z,15.67
2018-01-13T21:59:53.177Z,17.60
2018-01-13T22:02:19.200Z,15.23
2018-01-13T22:04:45.216Z,16.73
2018-01-13T22:07:11.228Z,16.20
2018-01-13T22:09:37.256Z,16.90
2018-01-13T22:12:03.313Z,15.40
2018-01-13T22:14:29.313Z,12.13
2018-01-13T22:16:55.322Z,13.43
2018-01-13T22:19:21.341Z,15.90
2018-01-13T22:21:47.336Z,15.87
2018-01-13T22:24:13.440Z,15.63
2018-01-13T22:26:39.400Z,16.23
2018-01-13T22:29:05.429Z,16.40
2018-01-13T22:31:31.461Z,13.03
2018-01-13T22:33:57.484Z,14.87
2018-01-13T22:36:23.546Z,14.63
2018-01-13T22:38:49.548Z,14.70
2018-01-13T22:41:15.595Z,13.27
2018-01-13T22:43:41.640Z,12.43
2018-01-13T22:46:07.674Z,14.00
2018-01-13T22:48:33.696Z,14.90
2018-01-13T22:50:59.705Z,14.97
2018-01-13T22:53:25.715Z,15.00
2018-01-13T22:55:51.736Z,13.37
2018-01-13T22:58:17.757Z,13.33
2018-01-13T23:00:50.033Z,12.90
2018-01-13T23:03:16.055Z,15.50
2018-01-13T23:05:42.040Z,12.13
2018-01-13T23:08:08.090Z,13.97
2018-01-13T23:10:34.143Z,15.03
2018-01-13T23:13:00.181Z,13.17
2018-01-13T23:15:26.184Z,13.80
2018-01-13T23:17:52.206Z,13.70
2018-01-13T23:20:18.334Z,12.93
2018-01-13T23:22:44.369Z,14.57
2018-01-13T23:25:10.480Z,13.10
2018-01-13T23:27:36.526Z,13.67
2018-01-13T23:30:02.668Z,12.43
2018-01-13T23:32:28.713Z,15.07
2018-01-13T23:34:54.752Z,14.07
2018-01-13T23:37:20.786Z,13.50
2018-01-13T23:39:46.830Z,13.47
2018-01-13T23:42:12.869Z,13.30
2018-01-13T23:44:38.839Z,12.63
2018-01-13T23:47:04.906Z,13.80
2018-01-13T23:49:30.920Z,13.07
2018-01-13T23:51:57.012Z,12.60
2018-01-13T23:54:23.041Z,13.23
2018-01-13T23:56:49.015Z,12.43
2018-01-13T23:59:15.117Z,13.60
